Time;durP1;ratioP1;P1;durP2;ratioP2;P2;SDS_P1;SDS_P2;PMS_P1;PMS_P2;Temp;Humidity;BMP_temperature;BMP_pressure;BME280_temperature;BME280_humidity;BME280_pressure;Samples;Min_cycle;Max_cycle;Signal;HPM_P1;HPM_P2
2021/12/19 00:00:28;;;;;;;58.80;20.73;;;3.90;99.90;;;;;;5065308;28;20057;-74
2021/12/19 00:10:53;;;;;;;60.20;20.73;;;4.00;99.90;;;;;;5066466;28;20029;-75
2021/12/19 00:13:19;;;;;;;68.68;23.58;;;4.00;99.90;;;;;;5066628;28;20237;-75
2021/12/19 00:15:45;;;;;;;53.88;20.08;;;4.10;99.90;;;;;;5048807;28;20036;-75
2021/12/19 00:18:10;;;;;;;65.45;22.02;;;4.10;99.90;;;;;;5066933;28;20031;-75
2021/12/19 00:20:36;;;;;;;88.10;22.02;;;4.20;99.90;;;;;;5067587;28;20116;-75
2021/12/19 00:23:02;;;;;;;77.07;23.63;;;4.20;99.90;;;;;;5052536;28;20383;-75
2021/12/19 00:25:28;;;;;;;59.72;20.35;;;4.30;99.90;;;;;;5069243;28;20037;-76
2021/12/19 00:27:54;;;;;;;52.47;19.30;;;4.30;99.90;;;;;;5070517;28;20028;-75
2021/12/19 00:30:19;;;;;;;70.40;20.88;;;4.30;99.90;;;;;;5070143;28;20029;-76
2021/12/19 00:32:45;;;;;;;64.97;20.73;;;4.30;99.90;;;;;;5068563;28;20151;-75
2021/12/19 00:35:11;;;;;;;66.20;22.35;;;4.30;99.90;;;;;;5069965;28;20054;-76
2021/12/19 00:37:37;;;;;;;53.53;20.60;;;4.40;99.90;;;;;;5070346;28;20028;-76
2021/12/19 00:40:04;;;;;;;54.30;20.02;;;4.40;99.90;;;;;;5070214;28;20056;-75
2021/12/19 00:42:34;;;;;;;57.53;21.33;;;4.40;99.90;;;;;;5068959;28;20078;-76
2021/12/19 00:45:05;;;;;;;77.95;20.70;;;4.50;99.90;;;;;;5070215;28;20040;-77
2021/12/19 00:47:31;;;;;;;95.43;25.42;;;4.50;99.90;;;;;;5068420;28;20025;-75
2021/12/19 00:49:56;;;;;;;67.40;22.50;;;4.50;99.90;;;;;;5068715;28;20131;-76
2021/12/19 00:52:23;;;;;;;94.57;23.40;;;4.40;99.90;;;;;;5068996;28;20047;-77
2021/12/19 00:54:48;;;;;;;106.43;25.70;;;4.40;99.90;;;;;;5070017;28;20111;-76
2021/12/19 00:57:14;;;;;;;129.50;26.65;;;4.40;99.90;;;;;;5070211;28;20124;-76
2021/12/19 00:59:40;;;;;;;107.18;26.17;;;4.40;99.90;;;;;;5069885;28;20052;-76
2021/12/19 01:02:05;;;;;;;106.90;26.02;;;4.40;99.90;;;;;;5069735;28;20033;-76
2021/12/19 01:04:31;;;;;;;72.57;21.33;;;4.40;99.90;;;;;;5068865;28;20032;-75
2021/12/19 01:07:00;;;;;;;83.57;22.95;;;4.40;99.90;;;;;;5069977;28;20111;-75
2021/12/19 01:09:27;;;;;;;75.07;21.77;;;4.50;99.90;;;;;;5068359;28;20033;-75
2021/12/19 01:11:53;;;;;;;107.57;21.35;;;4.50;99.90;;;;;;5068458;28;20017;-77
2021/12/19 01:14:19;;;;;;;63.97;20.27;;;4.50;99.90;;;;;;5068341;28;20025;-76
2021/12/19 01:16:45;;;;;;;89.95;22.55;;;4.50;99.90;;;;;;5069960;28;20032;-77
2021/12/19 01:19:11;;;;;;;76.45;21.73;;;4.50;99.90;;;;;;5069639;28;20021;-78
2021/12/19 01:21:37;;;;;;;77.90;20.20;;;4.50;99.90;;;;;;5051684;28;20115;-76
2021/12/19 01:24:03;;;;;;;76.82;20.45;;;4.50;99.90;;;;;;5068400;28;20032;-75
2021/12/19 01:26:29;;;;;;;67.32;20.90;;;4.60;99.90;;;;;;5068564;28;20054;-76
2021/12/19 01:28:54;;;;;;;51.90;20.58;;;4.60;99.90;;;;;;5068286;28;20032;-76
2021/12/19 01:31:20;;;;;;;77.75;22.70;;;4.60;99.90;;;;;;5067815;28;20625;-75
2021/12/19 01:33:46;;;;;;;81.45;21.58;;;4.70;99.90;;;;;;5050404;28;20071;-77
2021/12/19 01:36:12;;;;;;;74.88;20.70;;;4.70;99.90;;;;;;5069133;28;20071;-76
2021/12/19 01:38:38;;;;;;;78.38;21.65;;;4.70;99.90;;;;;;5068047;28;20041;-75
2021/12/19 01:41:04;;;;;;;133.02;23.42;;;4.70;99.90;;;;;;5067978;28;20032;-76
2021/12/19 01:43:31;;;;;;;143.20;25.50;;;4.70;99.90;;;;;;5069165;28;20039;-75
2021/12/19 01:45:57;;;;;;;79.43;21.05;;;4.70;99.90;;;;;;5068106;28;20178;-76
2021/12/19 01:48:23;;;;;;;79.18;20.80;;;4.80;99.90;;;;;;5068266;28;20029;-75
2021/12/19 01:50:49;;;;;;;57.78;19.45;;;4.70;99.90;;;;;;5068156;28;20052;-75
2021/12/19 01:53:15;;;;;;;;;;;4.70;99.90;;;;;;5051568;28;20119;-76
2021/12/19 01:55:43;;;;;;;61.47;17.40;;;4.70;99.90;;;;;;5068941;28;20046;-75
2021/12/19 01:58:09;;;;;;;111.03;20.65;;;4.70;99.90;;;;;;5069090;28;20020;-76
2021/12/19 02:00:41;;;;;;;78.65;17.85;;;4.70;99.90;;;;;;5067427;28;20053;-77
2021/12/19 02:03:09;;;;;;;138.15;22.40;;;4.60;99.90;;;;;;5069334;28;20032;-77
2021/12/19 02:05:36;;;;;;;107.75;17.92;;;4.70;99.90;;;;;;5067864;28;20387;-76
2021/12/19 02:08:03;;;;;;;95.30;19.80;;;4.60;99.90;;;;;;5068928;28;20020;-76
2021/12/19 02:10:31;;;;;;;76.90;22.48;;;4.50;99.90;;;;;;5067439;28;20029;-76
2021/12/19 02:12:58;;;;;;;95.60;21.55;;;4.50;99.90;;;;;;5050841;28;20421;-74
2021/12/19 02:15:26;;;;;;;118.80;22.48;;;4.40;99.90;;;;;;5067285;28;20029;-76
2021/12/19 02:17:55;;;;;;;96.10;22.75;;;4.40;99.90;;;;;;5068838;28;20036;-75
2021/12/19 02:20:22;;;;;;;79.93;22.55;;;4.40;99.90;;;;;;5068777;28;20398;-75
2021/12/19 02:22:48;;;;;;;100.15;22.73;;;4.50;99.90;;;;;;5067643;28;20024;-75
2021/12/19 02:25:14;;;;;;;157.02;23.88;;;4.40;99.90;;;;;;5068731;28;20430;-74
2021/12/19 02:27:40;;;;;;;86.50;23.00;;;4.40;99.90;;;;;;5068722;28;20032;-74
2021/12/19 02:30:07;;;;;;;;;;;4.40;99.90;;;;;;5050888;28;20597;-76
2021/12/19 02:32:35;;;;;;;178.93;24.05;;;4.40;99.90;;;;;;5067306;28;19947;-76
2021/12/19 02:35:08;;;;;;;143.68;25.13;;;4.40;99.90;;;;;;5068551;28;20265;-75
2021/12/19 02:48:13;;;;;;;84.10;22.23;;;4.30;99.90;;;;;;5068651;28;20513;-76
2021/12/19 02:50:49;;;;;;;115.65;24.55;;;4.30;99.90;;;;;;5068096;28;20060;-75
2021/12/19 02:53:23;;;;;;;122.40;27.53;;;4.30;99.90;;;;;;5068315;28;20531;-75
2021/12/19 02:55:49;;;;;;;130.70;23.00;;;4.30;99.90;;;;;;5067068;28;20024;-75
2021/12/19 02:58:14;;;;;;;125.88;26.35;;;4.30;99.90;;;;;;5068018;28;20032;-75
2021/12/19 03:00:40;;;;;;;125.95;24.27;;;4.30;99.90;;;;;;5068022;28;20037;-73
2021/12/19 03:03:06;;;;;;;114.15;24.55;;;4.20;99.90;;;;;;5068122;28;20534;-75
2021/12/19 03:05:33;;;;;;;77.95;19.60;;;4.20;99.90;;;;;;5066719;28;20029;-74
2021/12/19 03:08:02;;;;;;;72.43;23.33;;;4.20;99.90;;;;;;5068000;28;20134;-75
2021/12/19 03:13:33;;;;;;;100.28;22.30;;;4.20;99.90;;;;;;5068121;28;20097;-75
2021/12/19 03:18:47;;;;;;;96.57;23.90;;;4.00;99.90;;;;;;5066483;28;20093;-74
2021/12/19 03:21:16;;;;;;;90.32;21.65;;;4.00;99.90;;;;;;5066583;28;20032;-76
2021/12/19 03:23:42;;;;;;;128.90;25.33;;;3.90;99.90;;;;;;5067863;28;20032;-76
2021/12/19 03:26:08;;;;;;;82.78;23.33;;;3.90;99.90;;;;;;5067790;28;20451;-75
2021/12/19 03:28:34;;;;;;;95.50;23.83;;;3.80;99.90;;;;;;5049890;28;20029;-75
2021/12/19 03:31:00;;;;;;;84.65;18.88;;;3.80;99.90;;;;;;5067698;28;20032;-74
2021/12/19 03:33:26;;;;;;;113.90;22.17;;;3.70;99.90;;;;;;5066462;28;20040;-74
2021/12/19 03:35:52;;;;;;;94.97;24.95;;;3.80;99.90;;;;;;5066753;28;20044;-74
2021/12/19 03:38:18;;;;;;;72.38;21.90;;;3.80;99.90;;;;;;5066553;28;20037;-74
2021/12/19 03:40:51;;;;;;;118.82;22.38;;;3.80;99.90;;;;;;5067447;28;20047;-75
2021/12/19 03:43:20;;;;;;;124.82;23.08;;;3.80;99.90;;;;;;5067706;28;20108;-75
2021/12/19 03:45:46;;;;;;;80.38;19.67;;;3.80;99.90;;;;;;5066369;28;20048;-75
2021/12/19 03:48:14;;;;;;;92.82;21.30;;;3.90;99.90;;;;;;5066282;28;20025;-76
2021/12/19 03:50:44;;;;;;;81.32;19.70;;;4.00;99.90;;;;;;5067823;28;20513;-76
2021/12/19 03:53:12;;;;;;;109.35;24.13;;;4.10;99.90;;;;;;5067443;28;20029;-76
2021/12/19 03:55:40;;;;;;;81.68;16.45;;;4.10;99.90;;;;;;5068480;28;20406;-76
2021/12/19 03:58:06;;;;;;;81.28;19.73;;;4.20;99.90;;;;;;5071643;28;20029;-76
2021/12/19 04:00:32;;;;;;;89.53;17.65;;;4.30;99.90;;;;;;5071130;28;20052;-77
2021/12/19 04:03:04;;;;;;;79.13;21.05;;;4.40;99.90;;;;;;5071524;28;20028;-76
2021/12/19 04:05:31;;;;;;;105.90;20.30;;;4.50;99.90;;;;;;5071349;28;20027;-77
2021/12/19 04:07:57;;;;;;;51.70;18.58;;;4.50;99.90;;;;;;5070051;28;20028;-77
2021/12/19 04:10:24;;;;;;;83.18;20.35;;;4.60;99.90;;;;;;5070147;28;20033;-75
2021/12/19 04:12:50;;;;;;;63.70;19.75;;;4.70;99.90;;;;;;5071240;28;20494;-77
2021/12/19 04:15:16;;;;;;;71.32;21.27;;;4.70;99.90;;;;;;5071224;28;20032;-75
2021/12/19 04:17:42;;;;;;;49.67;16.40;;;4.70;99.90;;;;;;5071211;28;20028;-75
2021/12/19 04:20:11;;;;;;;46.10;17.40;;;4.70;99.90;;;;;;5069906;28;20105;-75
2021/12/19 04:22:37;;;;;;;56.17;17.52;;;4.80;99.90;;;;;;5069881;28;20162;-77
2021/12/19 04:25:03;;;;;;;53.53;19.08;;;4.80;99.90;;;;;;5069853;28;20096;-75
2021/12/19 04:27:29;;;;;;;81.28;18.23;;;4.90;99.90;;;;;;5069891;28;20045;-76
2021/12/19 04:29:55;;;;;;;;;;;4.90;99.90;;;;;;5070136;28;20364;-75
2021/12/19 04:32:29;;;;;;;51.58;15.55;;;4.90;99.90;;;;;;5070907;28;19915;-75
2021/12/19 04:34:54;;;;;;;51.72;17.48;;;4.90;99.90;;;;;;5070858;28;20124;-75
2021/12/19 04:59:14;;;;;;;35.58;14.98;;;5.20;99.90;;;;;;5070472;28;20029;-75
2021/12/19 05:03:51;;;;;;;34.42;14.60;;;5.30;99.90;;;;;;5070441;28;20021;-76
2021/12/19 05:06:36;;;;;;;40.88;15.25;;;5.30;99.90;;;;;;5068967;28;20535;-75
2021/12/19 05:14:35;;;;;;;31.42;14.77;;;5.40;99.90;;;;;;5070447;28;20058;-77
2021/12/19 05:17:06;;;;;;;34.20;15.82;;;5.40;99.90;;;;;;5070037;28;20467;-77
2021/12/19 05:19:45;;;;;;;39.88;17.70;;;5.50;99.90;;;;;;5069952;28;20085;-75
2021/12/19 05:22:11;;;;;;;32.42;13.50;;;5.50;99.90;;;;;;5070083;28;20383;-76
2021/12/19 05:27:07;;;;;;;42.78;16.58;;;5.50;99.90;;;;;;5069886;28;20029;-75
2021/12/19 05:29:35;;;;;;;41.08;16.30;;;5.40;99.90;;;;;;5069736;28;20040;-77
2021/12/19 05:32:01;;;;;;;40.53;15.65;;;5.40;99.90;;;;;;5068445;28;20495;-76
2021/12/19 05:34:28;;;;;;;;;;;5.50;99.90;;;;;;5086132;28;20103;-75
2021/12/19 05:47:39;;;;;;;41.55;16.40;;;5.50;99.90;;;;;;5069501;28;20036;-76
2021/12/19 05:50:05;;;;;;;41.05;15.43;;;5.40;99.90;;;;;;5068392;28;20043;-75
2021/12/19 05:52:31;;;;;;;;;;;5.40;99.90;;;;;;5070480;28;20374;-77
2021/12/19 05:54:57;;;;;;;35.22;14.63;;;5.50;99.90;;;;;;5069485;28;19905;-76
2021/12/19 05:57:23;;;;;;;41.75;16.05;;;5.60;99.90;;;;;;5069454;28;20029;-77
2021/12/19 05:59:50;;;;;;;37.88;15.85;;;5.60;99.90;;;;;;5068975;28;20049;-76
2021/12/19 06:02:16;;;;;;;38.85;15.98;;;5.60;99.90;;;;;;5067908;28;20036;-75
2021/12/19 06:04:43;;;;;;;46.67;15.55;;;5.60;99.90;;;;;;5069104;28;20020;-76
2021/12/19 06:07:08;;;;;;;43.83;16.23;;;5.70;99.90;;;;;;5067854;28;20489;-74
2021/12/19 06:09:34;;;;;;;46.38;16.17;;;5.70;99.90;;;;;;5068991;28;20044;-76
2021/12/19 06:12:00;;;;;;;37.35;14.85;;;5.80;99.90;;;;;;5068995;28;20398;-74
2021/12/19 06:14:31;;;;;;;40.92;16.13;;;5.90;99.90;;;;;;5069078;28;20108;-75
2021/12/19 06:16:57;;;;;;;36.60;16.98;;;5.90;99.90;;;;;;5068744;28;20394;-74
2021/12/19 06:19:23;;;;;;;48.53;20.02;;;5.90;99.90;;;;;;5068574;28;20122;-75
2021/12/19 06:21:49;;;;;;;44.42;17.58;;;6.00;99.90;;;;;;5067462;28;20124;-76
2021/12/19 06:24:14;;;;;;;47.63;17.15;;;5.90;99.90;;;;;;5068962;28;20024;-75
2021/12/19 06:26:40;;;;;;;37.53;16.17;;;5.90;99.90;;;;;;5084558;28;20040;-75
2021/12/19 06:29:06;;;;;;;48.90;16.48;;;5.90;99.90;;;;;;5068589;28;20492;-76
2021/12/19 06:31:32;;;;;;;38.88;15.07;;;5.90;99.90;;;;;;5068760;28;20127;-74
2021/12/19 06:33:58;;;;;;;37.63;15.25;;;5.90;99.90;;;;;;5067182;28;20040;-76
2021/12/19 06:36:24;;;;;;;32.47;15.52;;;6.00;99.90;;;;;;5068504;28;20029;-76
2021/12/19 06:38:49;;;;;;;39.10;16.15;;;6.10;99.90;;;;;;5068380;28;20071;-75
2021/12/19 06:41:15;;;;;;;42.63;16.00;;;6.10;99.90;;;;;;5068474;28;20071;-76
2021/12/19 06:43:41;;;;;;;57.47;18.88;;;6.10;99.90;;;;;;5068639;28;20029;-77
2021/12/19 06:46:08;;;;;;;41.55;17.35;;;6.20;99.90;;;;;;5068454;28;20028;-76
2021/12/19 06:48:33;;;;;;;44.22;16.92;;;6.10;99.90;;;;;;5066846;28;20020;-74
2021/12/19 06:51:00;;;;;;;47.45;17.42;;;6.10;99.90;;;;;;5067127;28;20032;-76
2021/12/19 06:53:25;;;;;;;49.08;18.63;;;6.10;99.90;;;;;;5066840;28;20039;-76
2021/12/19 06:55:51;;;;;;;47.25;17.27;;;6.10;99.90;;;;;;5066955;28;20391;-76
2021/12/19 06:58:17;;;;;;;45.90;17.27;;;6.10;99.90;;;;;;5068063;28;20040;-75
2021/12/19 07:00:43;;;;;;;54.25;20.00;;;6.10;99.90;;;;;;5067140;28;20032;-75
2021/12/19 07:03:14;;;;;;;;;;;6.10;99.90;;;;;;5067260;28;20036;-77
2021/12/19 07:05:40;;;;;;;41.22;17.10;;;6.10;99.90;;;;;;5066784;28;19963;-76
2021/12/19 07:08:06;;;;;;;51.90;19.45;;;6.10;99.90;;;;;;5068118;28;20028;-76
2021/12/19 07:10:32;;;;;;;52.95;19.95;;;6.10;99.90;;;;;;5067976;28;20043;-76
2021/12/19 07:12:57;;;;;;;53.90;20.27;;;6.10;99.90;;;;;;5066757;28;20067;-76
2021/12/19 07:15:24;;;;;;;59.63;21.23;;;6.10;99.90;;;;;;5067854;28;20067;-76
2021/12/19 07:17:51;;;;;;;52.42;19.60;;;6.00;99.90;;;;;;5082897;28;20024;-76
2021/12/19 07:20:17;;;;;;;52.50;19.33;;;6.00;99.90;;;;;;5067799;28;20035;-77
2021/12/19 07:22:42;;;;;;;46.50;18.13;;;6.00;99.90;;;;;;5067807;28;20020;-75
2021/12/19 07:25:09;;;;;;;54.72;19.27;;;5.90;99.90;;;;;;5066488;28;20055;-76
2021/12/19 07:27:35;;;;;;;54.08;19.85;;;5.90;99.90;;;;;;5066464;28;20031;-75
2021/12/19 07:30:00;;;;;;;59.28;20.05;;;5.90;99.90;;;;;;5066730;28;20487;-75
2021/12/19 07:32:26;;;;;;;49.50;17.33;;;5.90;99.90;;;;;;5067657;28;20035;-75
2021/12/19 07:34:52;;;;;;;52.45;19.17;;;5.90;99.90;;;;;;5049831;28;20067;-75
2021/12/19 07:37:19;;;;;;;46.78;18.90;;;5.90;99.90;;;;;;5066349;28;20028;-76
2021/12/19 07:39:59;;;;;;;45.17;17.60;;;6.00;99.90;;;;;;5066211;28;20083;-74
2021/12/19 07:42:25;;;;;;;44.78;18.00;;;5.90;99.90;;;;;;5067544;28;20031;-76
2021/12/19 07:44:50;;;;;;;46.33;18.15;;;6.00;99.90;;;;;;5066393;28;20029;-76
2021/12/19 07:47:16;;;;;;;55.42;19.55;;;5.90;99.90;;;;;;5083230;28;20040;-76
2021/12/19 07:49:42;;;;;;;45.38;17.05;;;5.90;99.90;;;;;;5066265;28;20020;-75
2021/12/19 07:52:08;;;;;;;57.38;20.08;;;5.90;99.90;;;;;;5067545;28;20090;-76
2021/12/19 07:54:34;;;;;;;52.75;18.42;;;5.80;99.90;;;;;;5066190;28;20032;-75
2021/12/19 07:57:00;;;;;;;52.40;20.05;;;5.80;99.90;;;;;;5066273;28;20028;-75
2021/12/19 07:59:25;;;;;;;47.92;19.17;;;5.80;99.90;;;;;;5067037;28;20037;-75
2021/12/19 08:01:51;;;;;;;49.78;17.10;;;5.70;99.90;;;;;;5065932;28;20490;-76
2021/12/19 08:04:17;;;;;;;43.88;17.15;;;5.70;99.90;;;;;;5066101;28;20494;-74
2021/12/19 08:06:43;;;;;;;36.78;16.15;;;5.60;99.90;;;;;;5067431;28;20446;-75
2021/12/19 08:09:10;;;;;;;58.55;20.88;;;5.60;99.90;;;;;;5065894;28;20029;-76
2021/12/19 08:11:40;;;;;;;43.03;16.45;;;5.60;99.90;;;;;;5066224;28;20197;-75
2021/12/19 08:14:16;;;;;;;46.00;17.77;;;5.40;99.90;;;;;;5067218;28;20526;-75
2021/12/19 08:16:44;;;;;;;50.25;17.60;;;5.30;99.90;;;;;;5067328;28;20033;-76
2021/12/19 08:19:10;;;;;;;44.92;16.98;;;5.20;99.90;;;;;;5067190;28;20491;-76
2021/12/19 08:21:36;;;;;;;41.92;17.77;;;5.10;99.90;;;;;;5066982;28;20112;-75
2021/12/19 08:24:03;;;;;;;45.63;16.85;;;5.00;99.90;;;;;;5067072;28;20439;-75
2021/12/19 08:26:31;;;;;;;42.25;17.50;;;5.00;99.90;;;;;;5065753;28;20039;-75
2021/12/19 08:28:57;;;;;;;49.05;16.98;;;4.90;99.90;;;;;;5048889;28;20130;-74
2021/12/19 08:31:23;;;;;;;48.92;17.42;;;4.90;99.90;;;;;;5065796;28;20037;-75
2021/12/19 08:33:49;;;;;;;48.72;18.38;;;4.80;99.90;;;;;;5067236;28;20029;-77
2021/12/19 08:36:15;;;;;;;46.65;17.85;;;4.80;99.90;;;;;;5065848;28;20362;-76
2021/12/19 08:38:41;;;;;;;49.13;18.08;;;4.80;99.90;;;;;;5066950;28;20064;-76
2021/12/19 08:41:08;;;;;;;42.95;17.63;;;4.80;99.90;;;;;;5065970;28;20029;-75
2021/12/19 08:43:33;;;;;;;44.28;18.83;;;4.80;99.90;;;;;;5070593;28;20029;-74
2021/12/19 08:46:00;;;;;;;57.92;19.20;;;4.70;99.90;;;;;;5069444;28;20026;-75
2021/12/19 08:48:25;;;;;;;41.22;16.58;;;4.70;99.90;;;;;;5069273;28;20082;-76
2021/12/19 08:50:51;;;;;;;41.67;16.77;;;4.70;99.90;;;;;;5070533;28;20040;-75
2021/12/19 08:53:17;;;;;;;38.40;15.45;;;4.60;99.90;;;;;;5070305;28;20032;-77
2021/12/19 08:55:44;;;;;;;43.65;16.13;;;4.50;99.90;;;;;;5068781;28;20032;-75
2021/12/19 08:58:10;;;;;;;40.38;15.38;;;4.50;99.90;;;;;;5068647;28;20478;-75
2021/12/19 09:00:35;;;;;;;38.25;15.80;;;4.50;99.90;;;;;;5069801;28;20072;-75
2021/12/19 09:03:02;;;;;;;33.95;14.73;;;4.50;99.90;;;;;;5068879;28;20108;-74
2021/12/19 09:05:29;;;;;;;36.65;15.95;;;4.50;99.90;;;;;;5052263;28;20384;-75
2021/12/19 09:07:55;;;;;;;42.75;16.88;;;4.60;99.90;;;;;;5068795;28;20060;-75
2021/12/19 09:10:21;;;;;;;;;;;4.60;99.90;;;;;;5069656;28;20390;-77
2021/12/19 09:12:47;;;;;;;55.90;19.92;;;4.70;99.90;;;;;;5070032;28;19999;-75
2021/12/19 09:15:13;;;;;;;46.92;18.85;;;4.70;99.90;;;;;;5069968;28;20032;-75
2021/12/19 09:17:39;;;;;;;39.67;16.17;;;4.80;99.90;;;;;;5069936;28;20386;-75
2021/12/19 09:20:07;;;;;;;40.28;15.55;;;4.90;99.90;;;;;;5068237;28;20542;-74
2021/12/19 09:22:33;;;;;;;42.58;16.50;;;4.90;99.90;;;;;;5068464;28;20031;-76
2021/12/19 09:24:59;;;;;;;;;;;4.90;99.90;;;;;;5069940;28;20024;-75
2021/12/19 09:27:25;;;;;;;135.32;22.92;;;4.90;99.90;;;;;;5069530;28;20240;-74
2021/12/19 09:29:51;;;;;;;63.78;17.60;;;5.00;99.90;;;;;;5068980;28;20040;-76
2021/12/19 09:32:17;;;;;;;45.40;17.83;;;5.00;99.90;;;;;;5068111;28;20033;-75
2021/12/19 09:34:43;;;;;;;86.80;19.67;;;5.00;99.90;;;;;;5069366;28;20194;-74
2021/12/19 09:37:09;;;;;;;97.72;19.63;;;5.10;99.90;;;;;;5068387;28;20088;-77
2021/12/19 09:39:35;;;;;;;128.27;23.88;;;5.10;99.90;;;;;;5068919;28;20037;-77
2021/12/19 09:42:08;;;;;;;84.07;28.98;;;5.20;99.90;;;;;;5069538;28;20463;-76
2021/12/19 09:44:35;;;;;;;57.60;17.75;;;5.40;99.90;;;;;;5069186;28;20128;-76
2021/12/19 09:47:01;;;;;;;67.20;17.70;;;5.50;99.90;;;;;;5069073;28;20387;-75
2021/12/19 09:49:27;;;;;;;50.58;17.60;;;5.60;99.90;;;;;;5067619;28;20020;-76
2021/12/19 09:51:53;;;;;;;54.15;19.27;;;5.70;99.90;;;;;;5068551;28;20025;-75
2021/12/19 09:54:20;;;;;;;43.67;15.63;;;5.90;99.90;;;;;;5066513;28;20025;-76
2021/12/19 09:56:48;;;;;;;42.13;16.58;;;6.00;99.90;;;;;;5068964;28;20494;-75
2021/12/19 09:59:20;;;;;;;35.95;13.52;;;6.10;99.90;;;;;;5066855;28;20229;-75
2021/12/19 10:01:47;;;;;;;37.63;14.65;;;6.20;99.90;;;;;;5068900;28;20395;-76
2021/12/19 10:04:39;;;;;;;36.40;14.75;;;6.40;99.90;;;;;;5068920;28;20071;-75
2021/12/19 10:07:13;;;;;;;38.45;15.85;;;6.50;99.90;;;;;;5068950;28;20605;-76
2021/12/19 10:09:57;;;;;;;61.25;15.88;;;6.60;99.90;;;;;;5068519;28;20111;-74
2021/12/19 10:14:59;;;;;;;31.73;12.95;;;6.80;99.90;;;;;;5068697;28;20534;-75
2021/12/19 10:17:25;;;;;;;35.50;13.77;;;7.00;99.90;;;;;;5068419;28;20336;-75
2021/12/19 10:19:57;;;;;;;26.17;11.52;;;7.10;99.90;;;;;;5069189;28;20036;-76
2021/12/19 10:22:36;;;;;;;28.83;12.15;;;7.30;99.90;;;;;;5068802;28;20024;-77
2021/12/19 10:25:12;;;;;;;31.70;13.23;;;7.40;99.90;;;;;;5068451;28;20025;-74
2021/12/19 10:27:55;;;;;;;26.48;11.40;;;7.60;99.90;;;;;;5068613;28;20040;-77
2021/12/19 10:30:33;;;;;;;27.60;11.52;;;7.90;99.90;;;;;;5068192;28;20033;-76
2021/12/19 10:33:00;;;;;;;24.85;11.15;;;7.90;99.90;;;;;;5068324;28;20025;-75
2021/12/19 10:35:30;;;;;;;22.08;9.63;;;8.10;99.90;;;;;;5068349;28;20036;-77
2021/12/19 10:37:57;;;;;;;27.25;11.30;;;8.40;99.90;;;;;;5068034;28;20121;-76
2021/12/19 10:40:24;;;;;;;26.08;11.90;;;8.50;99.90;;;;;;5068393;28;20025;-77
2021/12/19 10:42:55;;;;;;;25.55;12.60;;;8.60;99.90;;;;;;5050717;28;20161;-77
2021/12/19 10:45:32;;;;;;;30.30;12.27;;;8.50;99.90;;;;;;5069537;28;20449;-77
2021/12/19 10:48:10;;;;;;;;;;;8.50;99.90;;;;;;5068921;28;20079;-77
2021/12/19 10:50:45;;;;;;;29.52;12.27;;;8.60;99.90;;;;;;5067829;28;20050;-77
2021/12/19 10:53:12;;;;;;;29.83;12.07;;;8.70;99.90;;;;;;5066528;28;20483;-76
2021/12/19 10:55:46;;;;;;;23.80;10.48;;;8.90;99.90;;;;;;5066439;28;20059;-76
2021/12/19 10:58:31;;;;;;;36.22;12.90;;;9.00;99.90;;;;;;5050156;28;20435;-76
2021/12/19 11:01:21;;;;;;;31.52;12.35;;;9.10;99.90;;;;;;5068204;28;20040;-76
2021/12/19 11:04:00;;;;;;;33.83;13.27;;;9.00;99.90;;;;;;5066080;28;20020;-77
2021/12/19 11:06:46;;;;;;;37.88;13.95;;;9.10;99.90;;;;;;5066789;28;20034;-76
2021/12/19 11:09:20;;;;;;;39.13;16.20;;;9.20;99.90;;;;;;5065483;28;20084;-76
2021/12/19 11:11:50;;;;;;;38.83;15.55;;;9.30;99.90;;;;;;5067326;28;20028;-78
2021/12/19 11:14:17;;;;;;;42.00;16.35;;;9.30;99.90;;;;;;5065705;28;20063;-75
2021/12/19 11:16:43;;;;;;;48.92;18.13;;;9.40;99.90;;;;;;5065646;28;20029;-75
2021/12/19 11:19:10;;;;;;;48.53;18.45;;;9.50;99.90;;;;;;5066716;28;20036;-76
2021/12/19 11:21:37;;;;;;;52.78;18.45;;;9.50;99.90;;;;;;5066665;28;20044;-76
2021/12/19 11:24:06;;;;;;;47.58;18.50;;;9.60;99.90;;;;;;5066899;28;20052;-76
2021/12/19 11:26:32;;;;;;;54.35;20.15;;;9.60;99.90;;;;;;5065608;28;20017;-76
2021/12/19 11:28:58;;;;;;;;;;;9.70;99.90;;;;;;5067742;28;20455;-76
2021/12/19 11:31:27;;;;;;;54.50;20.70;;;9.70;99.90;;;;;;5067124;28;19909;-77
2021/12/19 11:34:16;;;;;;;55.53;20.70;;;9.70;99.90;;;;;;5065768;28;20062;-78
2021/12/19 11:36:51;;;;;;;58.35;21.70;;;9.70;99.90;;;;;;5066896;28;20059;-75
2021/12/19 11:39:18;;;;;;;68.95;23.40;;;9.80;99.90;;;;;;5066742;28;20028;-76
2021/12/19 11:42:14;;;;;;;59.60;21.95;;;9.80;99.90;;;;;;5065735;28;20048;-77
2021/12/19 11:47:46;;;;;;;63.75;24.30;;;9.90;99.90;;;;;;5067106;28;20051;-75
2021/12/19 11:50:25;;;;;;;69.80;22.33;;;9.90;99.90;;;;;;5065635;28;20104;-76
2021/12/19 11:52:54;;;;;;;63.35;24.88;;;9.90;99.90;;;;;;5066718;28;20147;-76
2021/12/19 11:55:24;;;;;;;71.45;25.35;;;9.90;99.90;;;;;;5066261;28;20075;-77
2021/12/19 11:58:27;;;;;;;70.30;25.30;;;9.90;99.90;;;;;;5066445;28;20025;-76
2021/12/19 12:01:09;;;;;;;67.78;25.45;;;10.10;99.90;;;;;;5054793;28;20060;-77
2021/12/19 12:03:43;;;;;;;69.35;24.27;;;10.10;99.90;;;;;;5066544;28;20252;-76
2021/12/19 12:06:16;;;;;;;66.05;24.95;;;10.20;99.90;;;;;;5066184;28;20453;-76
2021/12/19 12:09:04;;;;;;;65.22;23.88;;;10.20;99.90;;;;;;5066383;28;20031;-76
2021/12/19 12:11:31;;;;;;;72.00;26.13;;;10.20;99.90;;;;;;5066704;28;20047;-76
2021/12/19 12:14:18;;;;;;;65.72;24.13;;;10.20;99.90;;;;;;5066475;28;20029;-76
2021/12/19 12:16:53;;;;;;;70.32;25.25;;;10.20;99.90;;;;;;5067442;28;20032;-75
2021/12/19 12:19:47;;;;;;;67.05;24.60;;;10.20;99.90;;;;;;5070441;28;20028;-77
2021/12/19 12:22:33;;;;;;;73.40;25.77;;;10.20;99.90;;;;;;5070565;28;20021;-76
2021/12/19 12:25:14;;;;;;;65.15;25.25;;;10.20;99.90;;;;;;5069308;28;20023;-77
2021/12/19 12:27:42;;;;;;;67.72;25.83;;;10.30;99.90;;;;;;5069052;28;20032;-75
2021/12/19 12:30:14;;;;;;;70.60;26.17;;;10.30;99.90;;;;;;5070353;28;20031;-77
2021/12/19 12:32:41;;;;;;;74.53;26.40;;;10.30;99.90;;;;;;5069907;28;20062;-76
2021/12/19 12:35:12;;;;;;;65.75;24.85;;;10.20;99.90;;;;;;5069894;28;20501;-77
2021/12/19 12:37:40;;;;;;;73.90;26.52;;;10.20;99.90;;;;;;5069870;28;20041;-76
2021/12/19 12:40:21;;;;;;;70.00;24.92;;;10.30;99.90;;;;;;5070242;28;20052;-77
2021/12/19 12:43:11;;;;;;;63.80;25.45;;;10.30;99.90;;;;;;5070139;28;20017;-76
2021/12/19 12:45:50;;;;;;;78.65;26.23;;;10.20;99.90;;;;;;5070090;28;20024;-75
2021/12/19 12:48:30;;;;;;;65.50;25.10;;;10.20;99.90;;;;;;5070030;28;20078;-78
2021/12/19 12:50:56;;;;;;;71.63;28.13;;;10.20;99.90;;;;;;5069988;28;20024;-76
2021/12/19 12:53:29;;;;;;;63.65;24.77;;;10.10;99.90;;;;;;5069562;28;20033;-77
2021/12/19 12:56:09;;;;;;;63.63;23.42;;;10.10;99.90;;;;;;5068294;28;20031;-75
2021/12/19 12:58:42;;;;;;;64.13;22.85;;;10.10;99.90;;;;;;5069388;28;20044;-76
2021/12/19 13:01:13;;;;;;;65.65;25.33;;;10.10;99.90;;;;;;5067877;28;20028;-76
2021/12/19 13:03:39;;;;;;;60.95;22.52;;;10.10;99.90;;;;;;5069112;28;20374;-75
2021/12/19 13:06:04;;;;;;;59.45;23.73;;;10.10;99.90;;;;;;5051245;28;20025;-75
2021/12/19 13:08:30;;;;;;;59.92;22.45;;;10.10;99.90;;;;;;5067556;28;20091;-76
2021/12/19 13:10:56;;;;;;;63.08;23.25;;;10.10;99.90;;;;;;5069261;28;20534;-75
2021/12/19 13:13:25;;;;;;;60.42;23.88;;;10.10;99.90;;;;;;5067956;28;20040;-76
2021/12/19 13:16:02;;;;;;;55.83;23.55;;;10.00;99.90;;;;;;5068140;28;20044;-76
2021/12/19 13:18:27;;;;;;;67.95;24.77;;;9.90;99.90;;;;;;5067953;28;20024;-75
2021/12/19 13:21:01;;;;;;;54.92;22.20;;;9.90;99.90;;;;;;5069210;28;20037;-77
2021/12/19 13:23:27;;;;;;;60.47;22.15;;;9.90;99.90;;;;;;5068995;28;20024;-75
2021/12/19 13:25:53;;;;;;;57.55;22.80;;;9.90;99.90;;;;;;5068617;28;20024;-76
2021/12/19 13:28:22;;;;;;;58.70;21.63;;;9.90;99.90;;;;;;5068797;28;20054;-75
2021/12/19 13:30:48;;;;;;;61.70;22.98;;;9.90;99.90;;;;;;5068884;28;20357;-76
2021/12/19 13:33:18;;;;;;;57.15;21.88;;;10.00;99.90;;;;;;5068771;28;20028;-76
2021/12/19 13:35:47;;;;;;;59.88;22.95;;;9.90;99.90;;;;;;5068853;28;20038;-74
2021/12/19 13:38:14;;;;;;;60.03;22.90;;;10.00;99.90;;;;;;5068592;28;20028;-76
2021/12/19 13:40:43;;;;;;;61.50;23.58;;;9.90;99.90;;;;;;5068109;28;20399;-74
2021/12/19 13:43:17;;;;;;;56.35;22.98;;;10.00;99.90;;;;;;5068185;28;20020;-75
2021/12/19 13:45:55;;;;;;;61.15;23.35;;;10.00;99.90;;;;;;5068269;28;20094;-76
2021/12/19 13:48:27;;;;;;;64.65;23.52;;;10.00;99.90;;;;;;5067957;28;20293;-76
2021/12/19 13:51:07;;;;;;;61.13;23.77;;;9.90;99.90;;;;;;5068187;28;20074;-77
2021/12/19 13:53:38;;;;;;;60.25;22.52;;;9.80;99.90;;;;;;5068412;28;20024;-77
2021/12/19 13:56:15;;;;;;;56.08;22.98;;;9.80;99.90;;;;;;5066655;28;20387;-75
2021/12/19 13:58:44;;;;;;;53.97;21.98;;;9.70;99.90;;;;;;5068175;28;20093;-75